Time;durP1;ratioP1;P1;durP2;ratioP2;P2;SDS_P1;SDS_P2;PMS_P1;PMS_P2;Temp;Humidity;BMP_temperature;BMP_pressure;BME280_temperature;BME280_humidity;BME280_pressure;Samples;Min_cycle;Max_cycle;Signal;HPM_P1;HPM_P2
2023/04/17 00:02:19;;;;;;;37.60;24.30;;;11.20;99.90;;;;;;5094068;28;20158;-81
2023/04/17 00:04:46;;;;;;;36.63;24.40;;;11.20;99.90;;;;;;5076253;28;20293;-80
2023/04/17 00:07:11;;;;;;;38.00;23.47;;;11.30;99.90;;;;;;5076216;28;20177;-81
2023/04/17 00:09:37;;;;;;;36.07;23.60;;;11.40;99.90;;;;;;5094295;28;20151;-80
2023/04/17 00:12:03;;;;;;;41.07;24.63;;;11.30;99.90;;;;;;5076232;28;20206;-80
2023/04/17 00:14:28;;;;;;;37.33;23.53;;;11.20;99.90;;;;;;5075982;28;20174;-81
2023/04/17 00:16:54;;;;;;;40.57;23.33;;;11.20;99.90;;;;;;5076115;28;20173;-80
2023/04/17 00:19:20;;;;;;;39.50;22.73;;;11.40;99.90;;;;;;5075751;28;20268;-80
2023/04/17 00:21:46;;;;;;;38.27;22.57;;;11.30;99.90;;;;;;5075773;28;20643;-80
2023/04/17 00:24:12;;;;;;;35.57;22.60;;;11.30;99.90;;;;;;5075096;28;20208;-80
2023/04/17 00:26:37;;;;;;;36.73;22.20;;;11.20;99.90;;;;;;5075700;28;20622;-81
2023/04/17 00:29:03;;;;;;;33.40;21.97;;;10.90;99.90;;;;;;5075561;28;20169;-81
2023/04/17 00:31:30;;;;;;;37.87;22.50;;;10.80;99.90;;;;;;5093814;28;20170;-80
2023/04/17 00:33:57;;;;;;;34.27;21.40;;;10.80;99.90;;;;;;5075355;28;20174;-80
2023/04/17 00:36:23;;;;;;;34.50;23.03;;;10.70;99.90;;;;;;5094065;28;20176;-80
2023/04/17 00:38:50;;;;;;;34.83;21.33;;;10.80;99.90;;;;;;5094102;28;20228;-80
2023/04/17 00:41:15;;;;;;;37.83;22.20;;;10.80;99.90;;;;;;5076189;28;20628;-80
2023/04/17 00:43:41;;;;;;;34.67;20.40;;;11.00;99.90;;;;;;5075824;28;20210;-81
2023/04/17 00:46:07;;;;;;;39.27;21.90;;;10.90;99.90;;;;;;5075232;28;20168;-80
2023/04/17 00:48:35;;;;;;;36.13;20.87;;;10.60;99.90;;;;;;5093078;28;20244;-81
2023/04/17 00:51:02;;;;;;;33.53;20.70;;;10.60;99.90;;;;;;5075285;28;20527;-79
2023/04/17 00:53:31;;;;;;;33.67;19.87;;;10.70;99.90;;;;;;5074933;28;20186;-79
2023/04/17 00:56:04;;;;;;;35.13;20.37;;;10.70;99.90;;;;;;5075262;28;20189;-80
2023/04/17 00:58:30;;;;;;;37.50;20.30;;;10.80;99.90;;;;;;5075687;28;20170;-82
2023/04/17 01:00:56;;;;;;;35.60;19.87;;;10.90;99.90;;;;;;5075291;28;20162;-83
2023/04/17 01:03:22;;;;;;;36.93;21.33;;;10.90;99.90;;;;;;5093171;28;20150;-81
2023/04/17 01:05:50;;;;;;;37.00;20.70;;;10.90;99.90;;;;;;5092833;28;20172;-83
2023/04/17 01:08:17;;;;;;;34.87;20.47;;;10.80;99.90;;;;;;5075565;28;20240;-82
2023/04/17 01:10:42;;;;;;;36.83;20.07;;;10.80;99.90;;;;;;5075368;28;20529;-81
2023/04/17 01:13:08;;;;;;;37.63;20.87;;;10.80;99.90;;;;;;5093635;28;20161;-82
2023/04/17 01:15:35;;;;;;;36.13;19.57;;;10.80;99.90;;;;;;5075182;28;20191;-82
2023/04/17 01:18:01;;;;;;;40.27;22.13;;;10.90;99.90;;;;;;5075029;28;20173;-82
2023/04/17 01:20:30;;;;;;;37.37;21.33;;;10.80;99.90;;;;;;5075442;28;20202;-82
2023/04/17 01:22:57;;;;;;;40.57;21.53;;;10.80;99.90;;;;;;5075165;28;20222;-82
2023/04/17 01:25:28;;;;;;;34.17;21.33;;;10.80;99.90;;;;;;5093404;28;20211;-82
2023/04/17 01:27:55;;;;;;;38.70;20.47;;;10.90;99.90;;;;;;5075359;28;20176;-82
2023/04/17 01:30:21;;;;;;;38.03;21.40;;;10.90;99.90;;;;;;5075396;28;20542;-81
2023/04/17 01:32:46;;;;;;;37.00;21.40;;;11.00;99.90;;;;;;5074984;28;20167;-82
2023/04/17 01:35:12;;;;;;;36.03;20.00;;;11.00;99.90;;;;;;5075425;28;20187;-81
2023/04/17 01:37:37;;;;;;;36.37;20.30;;;11.10;99.90;;;;;;5075518;28;20170;-81
2023/04/17 01:40:05;;;;;;;41.20;21.80;;;11.00;99.90;;;;;;5093294;28;20173;-81
2023/04/17 01:42:33;;;;;;;34.50;20.60;;;11.00;99.90;;;;;;5093484;28;20172;-81
2023/04/17 01:44:59;;;;;;;37.23;20.97;;;11.10;99.90;;;;;;5075163;28;20248;-80
2023/04/17 01:47:24;;;;;;;35.53;21.00;;;11.20;99.90;;;;;;5075143;28;20556;-82
2023/04/17 01:49:50;;;;;;;37.10;21.47;;;11.20;99.90;;;;;;5074680;28;20155;-82
2023/04/17 01:52:15;;;;;;;31.00;20.20;;;11.20;99.90;;;;;;5075340;28;20632;-81
2023/04/17 01:54:41;;;;;;;35.53;20.93;;;11.00;99.90;;;;;;5093289;28;20579;-82
2023/04/17 01:57:07;;;;;;;41.10;21.70;;;11.10;99.90;;;;;;5075215;28;20150;-82
2023/04/17 01:59:33;;;;;;;36.50;21.30;;;11.10;99.90;;;;;;5093324;28;20187;-81
2023/04/17 02:01:59;;;;;;;36.17;20.73;;;11.00;99.90;;;;;;5074588;28;20209;-81
2023/04/17 02:04:25;;;;;;;41.27;21.50;;;10.80;99.90;;;;;;5075311;28;20190;-82
2023/04/17 02:06:51;;;;;;;39.37;21.50;;;10.80;99.90;;;;;;5077794;28;20510;-81
2023/04/17 02:09:17;;;;;;;42.13;21.40;;;10.90;99.90;;;;;;5078733;28;20155;-82
2023/04/17 02:11:43;;;;;;;35.77;20.63;;;10.90;99.90;;;;;;5096815;28;20144;-81
2023/04/17 02:14:09;;;;;;;34.23;20.07;;;10.80;99.90;;;;;;5078418;28;20241;-81
2023/04/17 02:16:36;;;;;;;33.60;21.00;;;10.70;99.90;;;;;;5096560;28;20169;-81
2023/04/17 02:19:02;;;;;;;42.47;20.70;;;10.80;99.90;;;;;;5078383;28;20177;-82
2023/04/17 02:21:27;;;;;;;43.20;22.83;;;10.80;99.90;;;;;;5078401;28;20651;-81
2023/04/17 02:23:53;;;;;;;39.77;20.90;;;10.80;99.90;;;;;;5096538;28;20191;-82
2023/04/17 02:26:19;;;;;;;36.87;22.33;;;10.80;99.90;;;;;;5078120;28;20198;-82
2023/04/17 02:28:46;;;;;;;37.87;21.97;;;10.80;99.90;;;;;;5095149;28;20217;-81
2023/04/17 02:31:12;;;;;;;36.50;21.50;;;10.90;99.90;;;;;;5095881;28;20219;-81
2023/04/17 02:33:38;;;;;;;38.00;22.40;;;10.90;99.90;;;;;;5078143;28;20627;-81
2023/04/17 02:36:06;;;;;;;40.97;22.13;;;10.80;99.90;;;;;;5095830;28;20186;-81
2023/04/17 02:38:31;;;;;;;41.10;22.90;;;10.90;99.90;;;;;;5077850;28;20165;-81
2023/04/17 02:40:58;;;;;;;40.97;22.37;;;11.00;99.90;;;;;;5077867;28;20593;-77
2023/04/17 02:43:24;;;;;;;40.27;23.60;;;11.00;99.90;;;;;;5095762;28;20212;-82
2023/04/17 02:45:50;;;;;;;43.57;23.60;;;10.80;99.90;;;;;;5095967;28;20234;-82
2023/04/17 02:48:17;;;;;;;49.30;23.30;;;10.80;99.90;;;;;;5077504;28;20182;-81
2023/04/17 02:50:43;;;;;;;43.30;22.90;;;11.00;99.90;;;;;;5077707;28;20168;-81
2023/04/17 02:53:10;;;;;;;43.97;24.77;;;10.90;99.90;;;;;;5077627;28;20162;-82
2023/04/17 02:55:36;;;;;;;42.97;23.73;;;10.90;99.90;;;;;;5077550;28;20170;-82
2023/04/17 02:58:03;;;;;;;43.10;24.10;;;10.90;99.90;;;;;;5095246;28;20157;-82
2023/04/17 03:00:29;;;;;;;45.63;25.00;;;10.90;99.90;;;;;;5077308;28;20183;-82
2023/04/17 03:02:55;;;;;;;44.83;24.20;;;10.80;99.90;;;;;;5095633;28;20153;-81
2023/04/17 03:05:22;;;;;;;44.60;22.33;;;10.90;99.90;;;;;;5077227;28;20197;-82
2023/04/17 03:07:49;;;;;;;41.87;23.90;;;10.80;99.90;;;;;;5076842;28;20170;-82
2023/04/17 03:10:15;;;;;;;43.27;23.93;;;10.80;99.90;;;;;;5076686;28;20198;-82
2023/04/17 03:12:41;;;;;;;42.37;24.57;;;10.80;99.90;;;;;;5095170;28;20167;-81
2023/04/17 03:15:07;;;;;;;44.60;24.57;;;10.80;99.90;;;;;;5095735;28;20609;-81
2023/04/17 03:17:32;;;;;;;50.30;24.93;;;10.80;99.90;;;;;;5075903;28;20241;-82
2023/04/17 03:19:58;;;;;;;46.17;24.30;;;10.80;99.90;;;;;;5094617;28;20645;-82
2023/04/17 03:22:24;;;;;;;52.03;25.83;;;10.80;99.90;;;;;;5095298;28;20178;-82
2023/04/17 03:24:49;;;;;;;53.27;26.73;;;10.80;99.90;;;;;;5077081;28;20208;-82
2023/04/17 03:27:15;;;;;;;51.60;26.63;;;10.90;99.90;;;;;;5094588;28;20165;-81
2023/04/17 03:29:44;;;;;;;51.90;27.20;;;10.80;99.90;;;;;;5076831;28;20213;-82
2023/04/17 03:32:09;;;;;;;53.17;26.77;;;10.80;99.90;;;;;;5094854;28;20230;-82
2023/04/17 03:34:35;;;;;;;53.80;25.17;;;10.70;99.90;;;;;;5094912;28;20239;-82
2023/04/17 03:37:01;;;;;;;48.83;25.83;;;10.50;99.90;;;;;;5094717;28;20181;-83
2023/04/17 03:39:27;;;;;;;51.07;24.73;;;10.50;99.90;;;;;;5076856;28;20641;-81
2023/04/17 03:41:52;;;;;;;44.17;24.17;;;10.50;99.90;;;;;;5094778;28;20181;-83
2023/04/17 03:44:18;;;;;;;44.30;21.60;;;10.40;99.90;;;;;;5076546;28;20197;-82
2023/04/17 03:46:44;;;;;;;47.00;24.17;;;10.40;99.90;;;;;;5076852;28;20176;-82
2023/04/17 03:49:10;;;;;;;43.53;22.53;;;10.60;99.90;;;;;;5075757;28;20541;-82
2023/04/17 03:51:37;;;;;;;41.77;23.17;;;10.60;99.90;;;;;;5094772;28;20255;-82
2023/04/17 03:54:02;;;;;;;41.90;22.73;;;10.60;99.90;;;;;;5094431;28;20200;-82
2023/04/17 03:56:28;;;;;;;43.10;23.73;;;10.60;99.90;;;;;;5076311;28;20172;-82
2023/04/17 03:58:53;;;;;;;49.63;24.67;;;10.60;99.90;;;;;;5076345;28;20174;-82
2023/04/17 04:01:22;;;;;;;46.47;25.07;;;10.60;99.90;;;;;;5076454;28;20178;-82
2023/04/17 04:03:48;;;;;;;44.70;23.80;;;10.60;99.90;;;;;;5075998;28;20194;-83
2023/04/17 04:06:13;;;;;;;35.77;21.70;;;10.70;99.90;;;;;;5094419;28;20544;-79
2023/04/17 04:08:40;;;;;;;40.03;21.70;;;10.80;99.90;;;;;;5076159;28;20177;-79
2023/04/17 04:11:06;;;;;;;41.97;23.10;;;10.70;99.90;;;;;;5075379;28;20174;-77
2023/04/17 04:13:33;;;;;;;43.40;22.30;;;10.70;99.90;;;;;;5075295;28;20517;-78
2023/04/17 04:15:58;;;;;;;41.43;21.60;;;10.70;99.90;;;;;;5075588;28;20194;-78
2023/04/17 04:18:24;;;;;;;40.50;22.37;;;10.60;99.90;;;;;;5075542;28;20243;-78
2023/04/17 04:20:49;;;;;;;38.87;22.57;;;10.70;99.90;;;;;;5093969;28;20199;-78
2023/04/17 04:23:15;;;;;;;45.30;23.03;;;10.70;99.90;;;;;;5093792;28;20583;-78
2023/04/17 04:25:42;;;;;;;38.80;22.77;;;10.70;99.90;;;;;;5093445;28;20194;-79
2023/04/17 04:28:09;;;;;;;44.00;22.60;;;10.70;99.90;;;;;;5074711;28;20175;-78
2023/04/17 04:30:37;;;;;;;40.80;22.10;;;10.60;99.90;;;;;;5075416;28;20164;-79
2023/04/17 04:33:07;;;;;;;37.00;21.83;;;10.60;99.90;;;;;;5093704;28;20197;-79
2023/04/17 04:35:32;;;;;;;42.07;22.70;;;10.70;99.90;;;;;;5075322;28;20192;-78
2023/04/17 04:38:01;;;;;;;39.87;22.27;;;10.70;99.90;;;;;;5075321;28;20177;-77
2023/04/17 04:40:29;;;;;;;42.43;23.47;;;10.70;99.90;;;;;;5075385;28;20157;-79
2023/04/17 04:42:55;;;;;;;48.57;23.70;;;10.60;99.90;;;;;;5075669;28;20181;-80
2023/04/17 04:45:22;;;;;;;50.87;25.00;;;10.60;99.90;;;;;;5075384;28;20182;-80
2023/04/17 04:47:48;;;;;;;47.53;25.77;;;10.50;99.90;;;;;;5075295;28;20166;-79
2023/04/17 04:50:14;;;;;;;45.03;24.20;;;10.60;99.90;;;;;;5075373;28;20174;-79
2023/04/17 04:52:40;;;;;;;52.67;26.70;;;10.50;99.90;;;;;;5075209;28;20158;-79
2023/04/17 04:55:08;;;;;;;48.07;24.73;;;10.60;99.90;;;;;;5074902;28;20203;-79
2023/04/17 04:57:33;;;;;;;44.43;25.33;;;10.60;99.90;;;;;;5075271;28;20646;-79
2023/04/17 04:59:59;;;;;;;53.03;25.97;;;10.50;99.90;;;;;;5074787;28;20176;-79
2023/04/17 05:02:24;;;;;;;45.17;24.57;;;10.60;99.90;;;;;;5092904;28;20175;-79
2023/04/17 05:04:50;;;;;;;46.20;25.27;;;10.50;99.90;;;;;;5075353;28;20225;-79
2023/04/17 05:07:17;;;;;;;48.20;25.13;;;10.60;99.90;;;;;;5075272;28;20246;-78
2023/04/17 05:09:43;;;;;;;46.17;24.80;;;10.60;99.90;;;;;;5093487;28;20175;-78
2023/04/17 05:12:09;;;;;;;44.10;24.70;;;10.70;99.90;;;;;;5074492;28;20172;-78
2023/04/17 05:14:35;;;;;;;47.13;25.60;;;10.80;99.90;;;;;;5075049;28;20170;-78
2023/04/17 05:17:01;;;;;;;43.40;24.60;;;10.80;99.90;;;;;;5075893;28;20277;-78
2023/04/17 05:19:28;;;;;;;45.20;24.17;;;10.70;99.90;;;;;;5074229;28;20229;-79
2023/04/17 05:21:54;;;;;;;41.97;24.60;;;10.70;99.90;;;;;;5074667;28;20171;-79
2023/04/17 05:24:21;;;;;;;44.37;23.83;;;10.70;99.90;;;;;;5074538;28;20744;-78
2023/04/17 05:26:47;;;;;;;39.40;23.13;;;10.60;99.90;;;;;;5074763;28;20643;-77
2023/04/17 05:29:13;;;;;;;42.63;23.40;;;10.60;99.90;;;;;;5074863;28;20210;-77
2023/04/17 05:31:39;;;;;;;40.77;23.20;;;10.60;99.90;;;;;;5092683;28;20701;-79
2023/04/17 05:34:04;;;;;;;42.87;22.40;;;10.60;99.90;;;;;;5091938;28;20161;-77
2023/04/17 05:36:31;;;;;;;37.20;22.13;;;10.60;99.90;;;;;;5074167;28;20179;-78
2023/04/17 05:38:56;;;;;;;37.07;21.43;;;10.60;99.90;;;;;;5073617;28;20198;-77
2023/04/17 05:41:22;;;;;;;36.87;21.73;;;10.70;99.90;;;;;;5076469;28;20748;-78
2023/04/17 05:43:48;;;;;;;34.33;19.77;;;10.70;99.90;;;;;;5096214;28;20193;-78
2023/04/17 05:46:13;;;;;;;33.17;18.87;;;10.70;99.90;;;;;;5077759;28;20166;-79
2023/04/17 05:48:40;;;;;;;35.33;21.13;;;10.80;99.90;;;;;;5078355;28;20169;-78
2023/04/17 05:51:06;;;;;;;36.80;21.40;;;10.60;99.90;;;;;;5077879;28;20248;-78
2023/04/17 05:53:36;;;;;;;34.53;20.00;;;10.60;99.90;;;;;;5077578;28;20195;-77
2023/04/17 05:56:02;;;;;;;33.80;18.97;;;10.70;99.90;;;;;;5077571;28;20223;-78
2023/04/17 05:58:27;;;;;;;34.93;19.27;;;10.70;99.90;;;;;;5077820;28;20540;-77
2023/04/17 06:00:53;;;;;;;29.97;18.33;;;10.80;99.90;;;;;;5076856;28;20171;-78
2023/04/17 06:03:20;;;;;;;30.77;19.03;;;10.80;99.90;;;;;;5077357;28;20162;-78
2023/04/17 06:05:47;;;;;;;37.00;19.60;;;10.80;99.90;;;;;;5077418;28;20660;-77
2023/04/17 06:08:12;;;;;;;31.63;19.50;;;10.70;99.90;;;;;;5077327;28;20175;-77
2023/04/17 06:10:38;;;;;;;37.37;19.40;;;10.70;99.90;;;;;;5095619;28;20216;-77
2023/04/17 06:13:06;;;;;;;36.73;18.97;;;10.70;99.90;;;;;;5077392;28;20180;-77
2023/04/17 06:15:31;;;;;;;29.53;18.17;;;10.90;99.90;;;;;;5076792;28;20555;-78
2023/04/17 06:17:57;;;;;;;31.80;19.73;;;10.90;99.90;;;;;;5077342;28;20163;-77
2023/04/17 06:20:23;;;;;;;38.77;20.43;;;11.00;99.90;;;;;;5095818;28;20162;-76
2023/04/17 06:22:49;;;;;;;36.30;19.47;;;11.00;99.90;;;;;;5077639;28;20158;-77
2023/04/17 06:25:15;;;;;;;32.93;19.47;;;11.00;99.90;;;;;;5077609;28;20217;-77
2023/04/17 06:27:41;;;;;;;30.10;19.67;;;11.10;99.90;;;;;;5077546;28;20167;-78
2023/04/17 06:30:07;;;;;;;34.73;19.03;;;11.00;99.90;;;;;;5077402;28;20171;-77
2023/04/17 06:32:32;;;;;;;40.60;21.60;;;11.10;99.90;;;;;;5077106;28;20264;-81
2023/04/17 06:34:58;;;;;;;36.50;20.73;;;11.10;99.90;;;;;;5077984;28;20220;-80
2023/04/17 06:37:23;;;;;;;33.17;20.13;;;11.20;99.90;;;;;;5077656;28;20181;-82
2023/04/17 06:39:49;;;;;;;38.03;21.13;;;11.20;99.90;;;;;;5077791;28;20182;-81
2023/04/17 06:42:15;;;;;;;34.03;19.10;;;11.10;99.90;;;;;;5077970;28;20170;-81
2023/04/17 06:44:42;;;;;;;35.70;20.53;;;11.00;99.90;;;;;;5077703;28;20224;-80
2023/04/17 06:47:07;;;;;;;36.67;21.93;;;11.20;99.90;;;;;;5077605;28;20527;-81
2023/04/17 06:49:33;;;;;;;26.60;16.37;;;11.00;99.90;;;;;;5077777;28;20173;-80
2023/04/17 06:51:59;;;;;;;30.13;19.10;;;11.00;99.90;;;;;;5095674;28;20217;-80
2023/04/17 06:54:25;;;;;;;29.50;18.17;;;10.90;99.90;;;;;;5077567;28;20174;-80
2023/04/17 06:56:56;;;;;;;27.87;17.67;;;10.80;99.90;;;;;;5095720;28;20180;-82
2023/04/17 06:59:22;;;;;;;31.77;18.73;;;10.80;99.90;;;;;;5078063;28;20575;-81
2023/04/17 07:01:48;;;;;;;32.13;18.80;;;10.70;99.90;;;;;;5060909;28;20206;-81
2023/04/17 07:04:16;;;;;;;30.40;17.97;;;10.60;99.90;;;;;;5077667;28;20285;-81
2023/04/17 07:06:42;;;;;;;28.93;17.83;;;10.60;99.90;;;;;;5077809;28;20171;-80
2023/04/17 07:09:07;;;;;;;33.73;18.60;;;10.50;99.90;;;;;;5077977;28;20257;-81
2023/04/17 07:11:33;;;;;;;34.10;19.50;;;10.50;99.90;;;;;;5077861;28;20210;-81
2023/04/17 07:14:00;;;;;;;30.17;18.63;;;10.50;99.90;;;;;;5077569;28;20184;-80
2023/04/17 07:16:26;;;;;;;30.07;18.83;;;10.50;99.90;;;;;;5077872;28;20525;-81
2023/04/17 07:18:51;;;;;;;34.20;19.23;;;10.60;99.90;;;;;;5077475;28;20179;-79
2023/04/17 07:21:17;;;;;;;35.40;19.43;;;10.70;99.90;;;;;;5077494;28;20171;-79
2023/04/17 07:23:43;;;;;;;33.77;18.83;;;10.70;99.90;;;;;;5095596;28;20191;-81
2023/04/17 07:26:10;;;;;;;36.60;19.63;;;10.80;99.90;;;;;;5078131;28;20168;-81
2023/04/17 07:28:37;;;;;;;36.57;20.20;;;10.80;99.90;;;;;;5077473;28;20213;-80
2023/04/17 07:31:07;;;;;;;35.77;20.23;;;10.80;99.90;;;;;;5077453;28;20170;-81
2023/04/17 07:33:37;;;;;;;28.00;18.23;;;10.80;99.90;;;;;;5077394;28;20169;-80
2023/04/17 07:36:04;;;;;;;29.07;18.43;;;11.00;99.90;;;;;;5077123;28;20197;-80
2023/04/17 07:38:33;;;;;;;31.83;18.17;;;10.90;99.90;;;;;;5076930;28;20168;-80
2023/04/17 07:41:00;;;;;;;29.60;17.30;;;10.90;99.90;;;;;;5077411;28;20288;-82
2023/04/17 07:43:27;;;;;;;28.80;17.63;;;10.80;99.90;;;;;;5077329;28;20505;-81
2023/04/17 07:45:53;;;;;;;30.97;19.07;;;10.80;99.90;;;;;;5077059;28;20170;-80
2023/04/17 07:48:21;;;;;;;31.90;19.53;;;10.70;99.90;;;;;;5076634;28;20171;-80
2023/04/17 07:50:49;;;;;;;30.50;19.17;;;10.80;99.90;;;;;;5095242;28;20163;-82
2023/04/17 07:53:17;;;;;;;31.33;19.07;;;10.90;99.90;;;;;;5076925;28;20176;-80
2023/04/17 07:55:44;;;;;;;32.13;19.13;;;11.00;99.90;;;;;;5077055;28;20220;-81
2023/04/17 07:58:11;;;;;;;31.53;19.57;;;11.20;99.90;;;;;;5076473;28;20183;-80
2023/04/17 08:00:37;;;;;;;32.90;20.10;;;11.20;99.90;;;;;;5076672;28;20578;-81
2023/04/17 08:03:04;;;;;;;28.57;18.03;;;11.30;99.90;;;;;;5076146;28;20241;-78
2023/04/17 08:05:30;;;;;;;28.40;18.60;;;11.30;99.90;;;;;;5076176;28;20754;-78
2023/04/17 08:07:56;;;;;;;30.27;18.77;;;11.20;99.90;;;;;;5075571;28;20247;-78
2023/04/17 08:10:23;;;;;;;30.60;19.57;;;11.10;99.90;;;;;;5075411;28;20264;-78
2023/04/17 08:12:48;;;;;;;34.40;21.30;;;11.10;99.90;;;;;;5094204;28;20216;-78
2023/04/17 08:15:14;;;;;;;39.27;22.33;;;11.30;99.90;;;;;;5076017;28;20160;-78
2023/04/17 08:17:40;;;;;;;32.63;20.10;;;11.50;99.90;;;;;;5094158;28;20221;-78
2023/04/17 08:20:12;;;;;;;33.43;20.70;;;11.50;99.90;;;;;;5075568;28;20179;-79
2023/04/17 08:22:42;;;;;;;32.70;19.93;;;11.60;99.90;;;;;;5076204;28;20172;-77
2023/04/17 08:25:09;;;;;;;32.67;20.00;;;11.70;99.90;;;;;;5075590;28;20201;-77
2023/04/17 08:27:40;;;;;;;31.07;18.97;;;11.70;99.90;;;;;;5075523;28;20638;-80
2023/04/17 08:30:09;;;;;;;30.93;20.57;;;11.60;99.90;;;;;;5075885;28;20622;-79
2023/04/17 08:32:44;;;;;;;32.47;17.77;;;11.70;99.90;;;;;;5075277;28;20173;-79
2023/04/17 08:35:11;;;;;;;28.93;18.33;;;11.80;99.90;;;;;;5075547;28;20535;-79
2023/04/17 08:37:45;;;;;;;29.03;18.53;;;11.80;99.90;;;;;;5075343;28;20250;-78
2023/04/17 08:40:12;;;;;;;28.03;18.13;;;11.80;99.90;;;;;;5075255;28;20573;-79
2023/04/17 08:42:42;;;;;;;26.33;17.83;;;11.80;99.90;;;;;;5076448;28;20172;-79
2023/04/17 08:45:10;;;;;;;29.60;19.33;;;11.90;99.90;;;;;;5075211;28;20205;-79
2023/04/17 08:47:38;;;;;;;33.27;19.93;;;11.70;99.90;;;;;;5075195;28;20154;-78
2023/04/17 08:50:10;;;;;;;29.97;20.03;;;11.90;99.90;;;;;;5092737;28;20171;-78
2023/04/17 08:52:46;;;;;;;28.43;19.10;;;12.10;99.90;;;;;;5074935;28;20173;-78
2023/04/17 08:55:14;;;;;;;36.53;20.03;;;12.00;99.90;;;;;;5075507;28;20283;-78
2023/04/17 08:58:00;;;;;;;31.67;19.20;;;12.00;99.90;;;;;;5075507;28;20656;-79
2023/04/17 09:00:30;;;;;;;29.17;19.23;;;12.10;99.90;;;;;;5074770;28;20539;-79
2023/04/17 09:02:57;;;;;;;30.47;18.77;;;12.10;99.90;;;;;;5074963;28;20177;-79
2023/04/17 09:05:26;;;;;;;30.43;20.07;;;12.10;99.90;;;;;;5075340;28;20300;-79
2023/04/17 09:08:19;;;;;;;33.10;20.97;;;12.10;99.90;;;;;;5075393;28;20197;-80
2023/04/17 09:10:55;;;;;;;31.90;19.70;;;12.30;99.90;;;;;;5092897;28;20145;-79
2023/04/17 09:13:23;;;;;;;33.07;20.50;;;12.40;99.90;;;;;;5075053;28;20161;-79
2023/04/17 09:16:06;;;;;;;34.17;20.00;;;12.50;99.90;;;;;;5076321;28;20410;-78
2023/04/17 09:18:33;;;;;;;33.43;19.73;;;12.40;99.90;;;;;;5078816;28;20166;-78
2023/04/17 09:21:03;;;;;;;30.23;20.17;;;12.10;99.90;;;;;;5079350;28;20170;-78
2023/04/17 09:23:45;;;;;;;32.30;20.67;;;11.90;99.90;;;;;;5079476;28;20192;-78
2023/04/17 09:26:13;;;;;;;32.83;20.80;;;12.00;99.90;;;;;;5079299;28;20238;-80
2023/04/17 09:28:39;;;;;;;37.40;20.37;;;12.00;99.90;;;;;;5079406;28;20188;-79
2023/04/17 09:31:17;;;;;;;36.17;23.00;;;12.10;99.90;;;;;;5079077;28;20167;-78
2023/04/17 09:34:00;;;;;;;36.23;21.53;;;12.20;99.90;;;;;;5079337;28;20177;-79
2023/04/17 09:36:29;;;;;;;38.20;21.90;;;12.40;99.90;;;;;;5097324;28;20625;-78
2023/04/17 09:38:55;;;;;;;34.43;22.00;;;12.50;99.90;;;;;;5078906;28;20603;-78
2023/04/17 09:41:28;;;;;;;35.37;21.70;;;12.60;99.90;;;;;;5079478;28;20165;-80
2023/04/17 09:44:04;;;;;;;34.20;20.83;;;12.40;99.90;;;;;;5096739;28;20272;-79
2023/04/17 09:46:39;;;;;;;34.57;21.63;;;12.20;99.90;;;;;;5078767;28;20261;-79
2023/04/17 09:49:14;;;;;;;35.77;22.07;;;12.40;99.90;;;;;;5078993;28;20162;-79
2023/04/17 09:51:41;;;;;;;33.53;21.57;;;12.60;99.90;;;;;;5079643;28;20176;-82
2023/04/17 09:54:10;;;;;;;30.57;20.30;;;12.70;99.90;;;;;;5079752;28;20624;-82
2023/04/17 09:56:36;;;;;;;33.13;20.27;;;12.90;99.90;;;;;;5079796;28;20226;-82
2023/04/17 09:59:04;;;;;;;32.73;20.90;;;13.00;99.90;;;;;;5079509;28;20162;-81
2023/04/17 10:01:32;;;;;;;35.60;21.50;;;13.10;99.90;;;;;;5097870;28;20604;-81
2023/04/17 10:04:00;;;;;;;32.33;20.00;;;13.40;99.90;;;;;;5098400;28;20253;-81
2023/04/17 10:06:26;;;;;;;32.27;20.63;;;13.40;99.90;;;;;;5079217;28;20285;-81
2023/04/17 10:08:53;;;;;;;36.50;22.70;;;13.40;99.90;;;;;;5079584;28;20167;-81
2023/04/17 10:11:29;;;;;;;36.83;23.30;;;13.10;99.90;;;;;;5079036;28;20190;-81
2023/04/17 10:14:17;;;;;;;37.40;22.60;;;13.10;99.90;;;;;;5078498;28;20169;-81
2023/04/17 10:16:45;;;;;;;38.57;22.97;;;13.30;99.90;;;;;;5078715;28;20200;-82
2023/04/17 10:19:29;;;;;;;34.63;20.20;;;13.40;99.90;;;;;;5078552;28;20671;-80
2023/04/17 10:22:32;;;;;;;36.93;20.90;;;13.30;99.90;;;;;;5078041;28;20544;-81
2023/04/17 10:25:11;;;;;;;31.57;20.83;;;13.10;99.90;;;;;;4998843;28;20204;-81
2023/04/17 10:27:37;;;;;;;34.80;21.30;;;13.00;99.90;;;;;;5069064;28;20436;-81
2023/04/17 10:30:06;;;;;;;34.20;21.50;;;12.80;99.90;;;;;;5078499;28;20179;-80
2023/04/17 10:32:33;;;;;;;34.07;21.13;;;12.70;99.90;;;;;;5078764;28;20171;-81
2023/04/17 10:34:59;;;;;;;32.33;19.00;;;13.00;99.90;;;;;;5078222;28;20208;-81
2023/04/17 10:37:47;;;;;;;28.13;18.13;;;13.10;99.90;;;;;;5078951;28;20176;-80
2023/04/17 10:40:19;;;;;;;30.97;19.10;;;13.10;99.90;;;;;;5078750;28;20523;-82
2023/04/17 10:43:16;;;;;;;31.57;19.97;;;13.00;99.90;;;;;;5079478;28;20674;-81
2023/04/17 10:45:54;;;;;;;30.37;20.03;;;13.30;99.90;;;;;;5079003;28;20566;-80
2023/04/17 10:48:50;;;;;;;29.33;19.03;;;13.40;99.90;;;;;;5078310;28;20174;-81
2023/04/17 10:51:22;;;;;;;29.73;18.17;;;13.90;99.90;;;;;;5079260;28;20176;-81
2023/04/17 10:53:54;;;;;;;31.47;20.90;;;14.00;99.90;;;;;;5079295;28;20181;-81
2023/04/17 10:56:24;;;;;;;33.50;21.63;;;13.80;99.90;;;;;;5079415;28;20170;-82
2023/04/17 10:59:01;;;;;;;29.13;18.33;;;13.80;99.90;;;;;;5078955;28;20245;-81
2023/04/17 11:01:46;;;;;;;33.60;20.63;;;13.50;99.90;;;;;;5078655;28;20167;-80
2023/04/17 11:04:22;;;;;;;29.77;18.90;;;13.40;99.90;;;;;;5078729;28;20214;-81
2023/04/17 11:06:49;;;;;;;30.23;19.30;;;13.40;99.90;;;;;;5078307;28;20174;-81
2023/04/17 11:09:18;;;;;;;28.73;18.00;;;13.60;99.90;;;;;;5077570;28;20186;-81
2023/04/17 11:11:44;;;;;;;26.97;19.13;;;13.60;99.90;;;;;;5078033;28;20174;-80
2023/04/17 11:14:17;;;;;;;28.53;18.57;;;13.40;99.90;;;;;;5078569;28;20247;-81
2023/04/17 11:16:45;;;;;;;28.50;18.00;;;13.70;99.90;;;;;;5078219;28;20170;-80
2023/04/17 11:19:17;;;;;;;30.13;18.53;;;14.00;99.90;;;;;;5078184;28;20262;-80
2023/04/17 11:21:46;;;;;;;25.33;17.23;;;14.30;99.90;;;;;;5077752;28;20260;-80
2023/04/17 11:24:28;;;;;;;30.40;18.67;;;14.20;99.90;;;;;;5096076;28;20616;-80
2023/04/17 11:26:58;;;;;;;27.57;18.63;;;13.90;99.90;;;;;;5077878;28;20174;-80
2023/04/17 11:29:25;;;;;;;28.30;18.33;;;13.90;99.90;;;;;;5077865;28;20510;-80
2023/04/17 11:31:52;;;;;;;25.10;17.27;;;13.80;99.90;;;;;;5077760;28;20223;-80
2023/04/17 11:34:17;;;;;;;28.03;18.00;;;13.90;99.90;;;;;;5095952;28;20162;-81
2023/04/17 11:36:59;;;;;;;26.43;17.60;;;14.10;99.90;;;;;;5095715;28;20227;-76
2023/04/17 11:39:28;;;;;;;29.70;18.13;;;14.50;99.90;;;;;;5075380;28;20179;-76
2023/04/17 11:41:55;;;;;;;25.90;16.37;;;15.30;99.90;;;;;;5093988;28;20170;-76
2023/04/17 11:44:22;;;;;;;26.50;17.67;;;15.90;99.90;;;;;;5076165;28;20578;-76
2023/04/17 11:46:52;;;;;;;23.53;16.77;;;16.60;99.90;;;;;;5094816;28;20624;-76
2023/04/17 11:49:31;;;;;;;22.93;17.07;;;16.40;99.90;;;;;;5076135;28;20209;-77
2023/04/17 11:52:02;;;;;;;24.57;17.03;;;16.30;99.90;;;;;;5094243;28;20165;-76
2023/04/17 11:54:36;;;;;;;24.80;17.20;;;16.50;99.90;;;;;;5075817;28;20198;-76
2023/04/17 11:57:02;;;;;;;24.93;17.57;;;16.80;99.90;;;;;;5075727;28;20180;-76
2023/04/17 11:59:32;;;;;;;26.63;17.53;;;16.80;99.90;;;;;;5075564;28;20196;-77
2023/04/17 12:02:00;;;;;;;28.53;18.60;;;16.40;99.90;;;;;;5093704;28;20212;-76
2023/04/17 12:04:33;;;;;;;31.33;18.70;;;16.10;99.90;;;;;;5075894;28;20193;-76
2023/04/17 12:07:02;;;;;;;29.47;18.60;;;16.20;99.90;;;;;;5075770;28;20206;-76
2023/04/17 12:09:30;;;;;;;24.40;18.07;;;16.00;99.90;;;;;;5094172;28;20167;-77
2023/04/17 12:12:01;;;;;;;24.53;17.13;;;16.10;99.90;;;;;;5075714;28;20168;-76
2023/04/17 12:14:27;;;;;;;25.97;17.40;;;16.50;99.90;;;;;;5075700;28;20221;-76
2023/04/17 12:16:54;;;;;;;27.83;18.67;;;16.00;99.90;;;;;;5094038;28;20158;-77
2023/04/17 12:19:19;;;;;;;24.73;17.27;;;15.60;99.90;;;;;;5075770;28;20764;-77
2023/04/17 12:21:48;;;;;;;27.80;18.10;;;15.20;99.90;;;;;;5075958;28;20169;-76
2023/04/17 12:24:16;;;;;;;27.97;18.80;;;14.50;99.90;;;;;;5093723;28;20212;-77
2023/04/17 12:26:47;;;;;;;26.20;18.57;;;14.10;99.90;;;;;;5059600;28;20194;-76
2023/04/17 12:29:14;;;;;;;28.63;18.90;;;14.20;99.90;;;;;;5075376;28;20216;-76
2023/04/17 12:31:40;;;;;;;26.83;18.07;;;14.40;99.90;;;;;;5075611;28;20186;-77
2023/04/17 12:34:06;;;;;;;28.50;17.43;;;14.70;99.90;;;;;;5093487;28;20190;-77